createdAt,value
2019-01-03T17:13:43.284Z,11.72
2019-01-03T17:16:15.991Z,11.41
2019-01-03T17:18:48.345Z,11.76
2019-01-03T17:21:20.491Z,11.59
2019-01-03T17:23:52.202Z,11.83
2019-01-03T17:26:23.621Z,11.44
2019-01-03T17:28:54.473Z,11.44
2019-01-03T17:31:26.998Z,11.63
2019-01-03T17:34:02.869Z,11.21
2019-01-03T17:36:34.736Z,11.51
2019-01-03T17:39:07.800Z,11.30
2019-01-03T17:41:38.792Z,11.60
2019-01-03T17:44:13.403Z,11.56
2019-01-03T17:46:47.485Z,11.73
2019-01-03T17:49:23.180Z,11.78
2019-01-03T17:52:00.267Z,11.94
2019-01-03T17:54:32.204Z,11.46
2019-01-03T17:57:05.544Z,11.54
2019-01-03T17:59:37.115Z,11.83
2019-01-03T18:02:11.464Z,11.06
2019-01-03T18:04:45.009Z,11.63
2019-01-03T18:07:15.294Z,11.49
2019-01-03T18:09:48.827Z,11.92
2019-01-03T18:12:19.975Z,11.85
2019-01-03T18:14:52.718Z,11.94
2019-01-03T18:17:25.373Z,11.65
2019-01-03T18:19:57.399Z,11.47
2019-01-03T18:22:28.400Z,11.61
2019-01-03T18:25:01.978Z,11.81
2019-01-03T18:27:34.628Z,11.28
2019-01-03T18:30:05.816Z,11.43
2019-01-03T18:32:36.428Z,11.50
2019-01-03T18:35:08.964Z,11.52
2019-01-03T18:37:41.276Z,11.67
2019-01-03T18:40:16.356Z,12.00
2019-01-03T18:42:50.756Z,11.90
2019-01-03T18:45:27.388Z,11.82
2019-01-03T18:47:58.292Z,11.95
2019-01-03T18:50:29.703Z,11.77
2019-01-03T18:53:02.522Z,11.45
2019-01-03T18:55:35.020Z,11.67
2019-01-03T18:58:11.372Z,11.74
2019-01-03T19:00:42.639Z,11.30
2019-01-03T19:03:13.336Z,12.00
2019-01-03T19:05:44.677Z,12.15
2019-01-03T19:08:15.307Z,12.29
2019-01-03T19:10:45.942Z,12.29
2019-01-03T19:13:19.883Z,12.34
2019-01-03T19:15:50.898Z,12.35
2019-01-03T19:18:23.471Z,12.11
2019-01-03T19:20:54.406Z,12.40
2019-01-03T19:23:26.244Z,12.32
2019-01-03T19:25:58.879Z,11.91
2019-01-03T19:28:30.453Z,11.89
2019-01-03T19:31:02.156Z,11.90
2019-01-03T19:33:33.361Z,11.90
2019-01-03T19:36:06.541Z,12.15
2019-01-03T19:38:39.696Z,12.20
2019-01-03T19:41:11.731Z,11.78
2019-01-03T19:43:45.298Z,11.71
2019-01-03T19:46:17.498Z,11.86
2019-01-03T19:48:52.520Z,12.05
2019-01-03T19:51:23.828Z,12.13
2019-01-03T19:53:56.177Z,12.08
2019-01-03T19:56:29.267Z,12.30
2019-01-03T19:59:06.272Z,12.34
2019-01-03T20:01:43.295Z,12.03
2019-01-03T20:04:15.143Z,12.08
2019-01-03T20:06:47.245Z,11.98
2019-01-03T20:09:18.886Z,12.02
2019-01-03T20:11:50.086Z,11.70
2019-01-03T20:14:23.388Z,12.13
2019-01-03T20:16:54.801Z,12.13
2019-01-03T20:19:25.475Z,12.22
2019-01-03T20:21:57.208Z,12.39
2019-01-03T20:24:28.771Z,12.25
2019-01-03T20:27:00.514Z,11.94
2019-01-03T20:29:31.576Z,12.08
2019-01-03T20:32:02.283Z,11.83
2019-01-03T20:34:32.611Z,12.14
2019-01-03T20:37:06.822Z,12.15
2019-01-03T20:39:38.268Z,12.26
2019-01-03T20:42:12.988Z,12.19
2019-01-03T20:44:45.261Z,12.20
2019-01-03T20:47:16.693Z,12.24
2019-01-03T20:49:47.475Z,12.26
2019-01-03T20:52:20.145Z,11.75
2019-01-03T20:54:52.306Z,11.91
2019-01-03T20:57:24.384Z,11.73
2019-01-03T20:59:57.288Z,12.01
2019-01-03T21:02:29.029Z,12.09
2019-01-03T21:05:01.179Z,11.84
2019-01-03T21:07:33.840Z,12.18
2019-01-03T21:10:05.778Z,12.27
2019-01-03T21:12:36.295Z,12.07
2019-01-03T21:15:10.970Z,11.86
2019-01-03T21:17:42.574Z,12.11
2019-01-03T21:20:16.075Z,12.13
2019-01-03T21:22:46.448Z,12.32
2019-01-03T21:25:19.428Z,12.33
2019-01-03T21:27:51.482Z,12.49
2019-01-03T21:30:25.040Z,12.39
2019-01-03T21:32:57.734Z,11.79
2019-01-03T21:35:32.251Z,11.99
2019-01-03T21:38:03.040Z,11.90
2019-01-03T21:40:35.889Z,12.11
2019-01-03T21:43:06.199Z,11.83
2019-01-03T21:45:36.550Z,12.09
2019-01-03T21:48:08.286Z,12.14
2019-01-03T21:50:39.492Z,12.11
2019-01-03T21:53:09.783Z,12.04
2019-01-03T21:55:41.570Z,12.19
2019-01-03T21:58:14.205Z,12.24
2019-01-03T22:00:46.242Z,12.39
2019-01-03T22:03:18.237Z,12.38
2019-01-03T22:05:51.074Z,12.17
2019-01-03T22:08:22.418Z,12.33
2019-01-03T22:10:59.988Z,11.82
2019-01-03T22:13:32.634Z,12.32
2019-01-03T22:16:05.072Z,12.36
2019-01-03T22:18:37.505Z,12.24
2019-01-03T22:21:08.614Z,12.22
2019-01-03T22:23:39.494Z,12.33
2019-01-03T22:26:10.508Z,12.22
2019-01-03T22:28:41.827Z,12.43
2019-01-03T22:31:12.939Z,12.41
2019-01-03T22:33:44.294Z,12.39
2019-01-03T22:36:17.105Z,12.49
2019-01-03T22:38:47.976Z,12.57
2019-01-03T22:41:18.899Z,12.66
2019-01-03T22:43:50.475Z,12.56
2019-01-03T22:46:22.833Z,12.55
2019-01-03T22:48:54.335Z,12.52
2019-01-03T22:51:27.803Z,12.46
2019-01-03T22:53:59.756Z,12.45
2019-01-03T22:56:31.525Z,12.49
2019-01-03T22:59:03.895Z,12.52
2019-01-03T23:01:36.235Z,12.55
2019-01-03T23:04:10.533Z,12.66
2019-01-03T23:06:41.124Z,12.64
2019-01-03T23:09:15.242Z,12.62
2019-01-03T23:11:47.787Z,12.67
2019-01-03T23:14:19.229Z,12.74
2019-01-03T23:16:52.936Z,12.66
2019-01-03T23:19:23.696Z,12.74
2019-01-03T23:21:56.372Z,12.65
2019-01-03T23:24:33.267Z,12.76
2019-01-03T23:27:04.123Z,12.45
2019-01-03T23:29:36.275Z,12.52
2019-01-03T23:32:08.034Z,12.50
2019-01-03T23:34:41.435Z,12.46
2019-01-03T23:37:12.444Z,12.39
2019-01-03T23:39:44.016Z,12.42
2019-01-03T23:42:15.828Z,12.27
2019-01-03T23:45:15.963Z,12.18
2019-01-03T23:47:49.796Z,12.26
2019-01-03T23:50:24.704Z,12.15
2019-01-03T23:52:56.945Z,12.05
2019-01-03T23:55:29.743Z,12.07
2019-01-03T23:58:00.746Z,12.06
